Time;durP1;ratioP1;P1;durP2;ratioP2;P2;SDS_P1;SDS_P2;PMS_P1;PMS_P2;Temp;Humidity;BMP_temperature;BMP_pressure;BME280_temperature;BME280_humidity;BME280_pressure;Samples;Min_cycle;Max_cycle;Signal;HPM_P1;HPM_P2
2022/10/07 00:02:24;;;;;;;0.10;0.10;;;9.60;99.90;;;;;;4990476;28;20050;-81
2022/10/07 00:04:51;;;;;;;0.10;0.10;;;10.10;99.90;;;;;;4974454;28;20086;-81
2022/10/07 00:07:19;;;;;;;0.00;0.00;;;9.60;99.90;;;;;;4981365;28;20064;-81
2022/10/07 00:09:46;;;;;;;0.08;0.08;;;9.60;99.90;;;;;;4992941;28;20072;-80
2022/10/07 00:12:13;;;;;;;0.10;0.10;;;9.70;99.90;;;;;;4987507;28;20062;-80
2022/10/07 00:14:41;;;;;;;0.10;0.10;;;9.70;99.90;;;;;;4980203;28;20045;-81
2022/10/07 00:17:08;;;;;;;0.10;0.10;;;9.60;99.90;;;;;;4979657;28;20072;-81
2022/10/07 00:19:35;;;;;;;0.00;0.00;;;9.60;99.90;;;;;;4977765;28;20046;-80
2022/10/07 00:22:02;;;;;;;0.10;0.10;;;9.60;99.90;;;;;;4986323;28;20038;-80
2022/10/07 00:24:30;;;;;;;0.10;0.10;;;9.50;99.90;;;;;;4976154;28;20050;-81
2022/10/07 00:26:57;;;;;;;0.10;0.10;;;9.50;99.90;;;;;;4988445;28;20046;-81
2022/10/07 00:29:24;;;;;;;0.10;0.10;;;9.50;99.90;;;;;;4973689;28;20050;-81
2022/10/07 00:31:51;;;;;;;0.10;0.10;;;9.50;99.90;;;;;;4981334;28;20061;-81
2022/10/07 00:34:23;;;;;;;0.10;0.10;;;10.70;99.90;;;;;;4991955;28;20058;-80
2022/10/07 00:36:50;;;;;;;0.10;0.10;;;9.60;99.90;;;;;;4976000;28;20049;-81
2022/10/07 00:39:17;;;;;;;0.10;0.10;;;9.70;99.90;;;;;;4977555;28;20046;-81
2022/10/07 00:41:49;;;;;;;0.10;0.10;;;9.50;99.90;;;;;;4977001;28;20046;-81
2022/10/07 00:44:40;;;;;;;0.10;0.10;;;9.50;99.90;;;;;;4996010;28;20498;-81
2022/10/07 00:47:13;;;;;;;0.10;0.10;;;9.50;99.90;;;;;;4975441;28;20529;-80
2022/10/07 00:49:43;;;;;;;0.10;0.10;;;9.40;99.90;;;;;;4981332;28;20034;-81
2022/10/07 00:52:11;;;;;;;0.10;0.10;;;9.40;99.90;;;;;;4994433;28;20046;-81
2022/10/07 00:54:39;;;;;;;0.10;0.10;;;9.40;99.90;;;;;;4992126;28;20482;-80
2022/10/07 00:57:07;;;;;;;0.10;0.10;;;9.40;99.90;;;;;;4990258;28;21622;-82
2022/10/07 00:59:36;;;;;;;0.10;0.10;;;9.50;99.90;;;;;;4981246;28;20058;-82
2022/10/07 01:02:03;;;;;;;0.10;0.10;;;9.40;99.90;;;;;;4977313;28;20150;-81
2022/10/07 01:04:30;;;;;;;0.10;0.10;;;9.40;99.90;;;;;;4993184;28;20083;-81
2022/10/07 01:06:57;;;;;;;0.10;0.10;;;11.10;99.90;;;;;;4989013;28;20046;-81
2022/10/07 01:09:24;;;;;;;0.00;0.00;;;9.40;99.90;;;;;;4972282;28;20129;-81
2022/10/07 01:11:56;;;;;;;0.10;0.10;;;9.30;99.90;;;;;;4987184;28;20479;-81
2022/10/07 01:14:38;;;;;;;0.10;0.10;;;9.30;99.90;;;;;;4971467;28;20038;-81
2022/10/07 01:17:14;;;;;;;0.10;0.10;;;9.30;99.90;;;;;;4975121;28;20058;-81
2022/10/07 01:20:02;;;;;;;0.10;0.10;;;9.30;99.90;;;;;;4993365;28;20069;-81
2022/10/07 01:22:38;;;;;;;0.10;0.10;;;9.30;99.90;;;;;;4973733;28;20128;-81
2022/10/07 01:25:31;;;;;;;0.10;0.10;;;9.20;99.90;;;;;;4988318;28;20046;-81
2022/10/07 01:28:04;;;;;;;0.10;0.10;;;9.20;99.90;;;;;;4986055;28;20065;-80
2022/10/07 01:30:35;;;;;;;0.10;0.10;;;9.00;99.90;;;;;;4990390;28;20045;-81
2022/10/07 01:33:05;;;;;;;0.10;0.10;;;9.10;99.90;;;;;;4988689;28;20034;-80
2022/10/07 01:35:35;;;;;;;0.10;0.10;;;9.00;99.90;;;;;;4975962;28;20050;-81
2022/10/07 01:38:06;;;;;;;0.10;0.10;;;9.00;99.90;;;;;;4974095;28;20074;-81
2022/10/07 01:40:38;;;;;;;0.10;0.10;;;9.00;99.90;;;;;;4966284;28;20047;-77
2022/10/07 01:43:06;;;;;;;0.10;0.10;;;9.00;99.90;;;;;;4984826;28;20406;-81
2022/10/07 01:45:37;;;;;;;0.10;0.10;;;9.00;99.90;;;;;;4991032;28;20050;-80
2022/10/07 01:48:04;;;;;;;0.10;0.10;;;8.90;99.90;;;;;;4989112;28;20048;-81
2022/10/07 01:50:32;;;;;;;0.10;0.10;;;8.90;99.90;;;;;;4980476;28;20043;-82
2022/10/07 01:53:14;;;;;;;0.10;0.10;;;8.90;99.90;;;;;;4972599;28;20053;-81
2022/10/07 01:55:52;;;;;;;0.10;0.10;;;8.90;99.90;;;;;;4990211;28;20130;-81
2022/10/07 01:58:34;;;;;;;0.10;0.10;;;8.80;99.90;;;;;;4986286;28;20052;-80
2022/10/07 02:01:10;;;;;;;0.10;0.10;;;8.70;99.90;;;;;;4993201;28;20046;-80
2022/10/07 02:04:05;;;;;;;0.10;0.10;;;8.70;99.90;;;;;;4990102;28;20230;-80
2022/10/07 02:06:39;;;;;;;0.10;0.10;;;8.70;99.90;;;;;;4993062;28;20038;-82
2022/10/07 02:09:13;;;;;;;0.10;0.10;;;8.70;99.90;;;;;;4975255;28;20086;-82
2022/10/07 02:11:44;;;;;;;0.10;0.10;;;8.70;99.90;;;;;;4992679;28;20489;-80
2022/10/07 02:14:16;;;;;;;0.10;0.10;;;8.70;99.90;;;;;;4991643;28;20038;-81
2022/10/07 02:16:46;;;;;;;0.00;0.00;;;8.70;99.90;;;;;;4990963;28;20073;-81
2022/10/07 02:19:14;;;;;;;;;;;8.70;99.90;;;;;;4974454;28;20498;-80
2022/10/07 02:21:45;;;;;;;0.08;0.08;;;8.70;99.90;;;;;;4978091;28;19921;-80
2022/10/07 02:24:13;;;;;;;0.10;0.10;;;8.60;99.90;;;;;;4991945;28;20145;-82
2022/10/07 02:26:41;;;;;;;0.10;0.10;;;8.70;99.90;;;;;;4980895;28;20458;-81
2022/10/07 02:29:11;;;;;;;0.00;0.00;;;8.70;99.90;;;;;;4984269;28;20078;-81
2022/10/07 02:31:41;;;;;;;0.10;0.10;;;8.80;99.90;;;;;;4993423;28;20038;-80
2022/10/07 02:34:10;;;;;;;0.10;0.10;;;8.90;99.90;;;;;;4991643;28;20050;-81
2022/10/07 02:36:47;;;;;;;0.10;0.10;;;8.80;99.90;;;;;;4980027;28;20105;-81
2022/10/07 02:39:14;;;;;;;0.10;0.10;;;8.80;99.90;;;;;;4992785;28;20050;-80
2022/10/07 02:41:49;;;;;;;0.10;0.10;;;8.80;99.90;;;;;;4976983;28;20046;-81
2022/10/07 02:44:24;;;;;;;0.10;0.10;;;8.80;99.90;;;;;;4979467;28;20113;-79
2022/10/07 02:46:58;;;;;;;0.03;0.03;;;8.80;99.90;;;;;;4992242;28;20041;-82
2022/10/07 02:49:27;;;;;;;0.10;0.10;;;8.70;99.90;;;;;;4992954;28;20061;-81
2022/10/07 02:51:58;;;;;;;0.10;0.10;;;8.70;99.90;;;;;;4983660;28;20038;-82
2022/10/07 02:54:31;;;;;;;0.10;0.10;;;8.70;99.90;;;;;;4979515;28;20414;-80
2022/10/07 02:56:59;;;;;;;0.10;0.10;;;8.60;99.90;;;;;;4995468;28;20049;-81
2022/10/07 02:59:27;;;;;;;0.10;0.10;;;8.60;99.90;;;;;;4976912;28;20038;-81
2022/10/07 03:02:00;;;;;;;0.05;0.05;;;8.60;99.90;;;;;;4980830;28;20054;-81
2022/10/07 03:04:27;;;;;;;0.10;0.10;;;8.60;99.90;;;;;;4973977;28;20043;-80
2022/10/07 03:06:55;;;;;;;0.10;0.10;;;8.50;99.90;;;;;;4994057;28;20090;-81
2022/10/07 03:09:21;;;;;;;0.10;0.10;;;8.50;99.90;;;;;;4990192;28;20077;-81
2022/10/07 03:11:48;;;;;;;0.00;0.00;;;8.40;99.90;;;;;;4980364;28;20074;-83
2022/10/07 03:14:15;;;;;;;0.10;0.10;;;8.30;99.90;;;;;;4984434;28;20214;-82
2022/10/07 03:16:42;;;;;;;0.10;0.10;;;8.30;99.90;;;;;;4979485;28;20046;-82
2022/10/07 03:19:10;;;;;;;0.10;0.10;;;8.30;99.90;;;;;;4993636;28;20057;-81
2022/10/07 03:21:39;;;;;;;0.10;0.10;;;8.20;99.90;;;;;;4976090;28;20516;-82
2022/10/07 03:24:06;;;;;;;0.05;0.05;;;8.20;99.90;;;;;;4968374;28;20459;-81
2022/10/07 03:26:34;;;;;;;0.10;0.10;;;8.20;99.90;;;;;;4995815;28;20042;-82
2022/10/07 03:29:01;;;;;;;0.00;0.00;;;8.20;99.90;;;;;;4989778;28;20112;-81
2022/10/07 03:31:28;;;;;;;0.00;0.00;;;8.20;99.90;;;;;;4974675;28;20045;-80
2022/10/07 03:33:56;;;;;;;0.10;0.10;;;8.30;99.90;;;;;;4988505;28;20057;-81
2022/10/07 03:36:25;;;;;;;0.10;0.10;;;8.30;99.90;;;;;;4974659;28;20491;-81
2022/10/07 03:38:54;;;;;;;0.10;0.10;;;8.30;99.90;;;;;;4994029;28;20038;-81
2022/10/07 03:41:21;;;;;;;0.10;0.10;;;8.40;99.90;;;;;;4993519;28;20037;-82
2022/10/07 03:43:48;;;;;;;0.10;0.10;;;8.40;99.90;;;;;;4976802;28;20050;-82
2022/10/07 03:46:16;;;;;;;0.10;0.10;;;8.40;99.90;;;;;;4996072;28;20533;-82
2022/10/07 03:48:43;;;;;;;0.10;0.10;;;8.40;99.90;;;;;;4989951;28;20130;-81
2022/10/07 03:51:10;;;;;;;0.10;0.10;;;8.30;99.90;;;;;;4991312;28;20136;-81
2022/10/07 03:53:39;;;;;;;0.10;0.10;;;8.30;99.90;;;;;;4994078;28;20145;-80
2022/10/07 03:56:06;;;;;;;0.10;0.10;;;8.30;99.90;;;;;;4992867;28;20117;-81
2022/10/07 03:58:33;;;;;;;0.10;0.10;;;8.30;99.90;;;;;;4993508;28;20417;-81
2022/10/07 04:01:05;;;;;;;0.10;0.10;;;8.10;99.90;;;;;;4992220;28;20046;-83
2022/10/07 04:03:32;;;;;;;0.10;0.10;;;8.10;99.90;;;;;;4975037;28;20540;-81
2022/10/07 04:05:59;;;;;;;0.10;0.10;;;8.10;99.90;;;;;;4991433;28;20053;-82
2022/10/07 04:08:27;;;;;;;0.10;0.10;;;8.00;99.90;;;;;;4973288;28;20038;-82
2022/10/07 04:10:58;;;;;;;0.10;0.10;;;7.90;99.90;;;;;;4990427;28;20520;-82
2022/10/07 04:13:25;;;;;;;0.00;0.00;;;7.90;99.90;;;;;;4990748;28;20048;-80
2022/10/07 04:15:52;;;;;;;0.10;0.10;;;7.80;99.90;;;;;;4975469;28;20506;-82
2022/10/07 04:18:19;;;;;;;0.05;0.05;;;7.60;99.90;;;;;;4976174;28;20556;-82
2022/10/07 04:20:46;;;;;;;0.10;0.10;;;7.50;99.90;;;;;;4990710;28;20076;-82
2022/10/07 04:23:14;;;;;;;0.10;0.10;;;7.50;99.90;;;;;;4991058;28;20129;-81
2022/10/07 04:25:42;;;;;;;0.10;0.10;;;7.50;99.90;;;;;;4974296;28;20134;-83
2022/10/07 04:28:15;;;;;;;0.10;0.10;;;7.50;99.90;;;;;;4975641;28;20050;-82
2022/10/07 04:30:43;;;;;;;0.00;0.00;;;7.50;99.90;;;;;;4988881;28;20062;-83
2022/10/07 04:33:10;;;;;;;0.10;0.10;;;7.50;99.90;;;;;;4993864;28;20133;-83
2022/10/07 04:35:38;;;;;;;0.10;0.10;;;7.50;99.90;;;;;;4990998;28;20042;-82
2022/10/07 04:38:08;;;;;;;0.10;0.10;;;7.50;99.90;;;;;;4989758;28;20050;-81
2022/10/07 04:40:38;;;;;;;0.00;0.00;;;7.50;99.90;;;;;;4991766;28;20479;-80
2022/10/07 04:43:18;;;;;;;0.00;0.00;;;7.50;99.90;;;;;;4972606;28;20117;-82
2022/10/07 04:45:49;;;;;;;0.10;0.10;;;7.50;99.90;;;;;;4990274;28;20043;-82
2022/10/07 04:48:17;;;;;;;0.10;0.10;;;7.50;99.90;;;;;;4972765;28;20046;-82
2022/10/07 04:50:45;;;;;;;0.10;0.10;;;7.50;99.90;;;;;;4976462;28;20503;-84
2022/10/07 04:53:13;;;;;;;0.00;0.00;;;7.40;99.90;;;;;;4989684;28;20053;-83
2022/10/07 04:55:41;;;;;;;0.10;0.10;;;7.40;99.90;;;;;;4992963;28;20050;-83
2022/10/07 04:58:09;;;;;;;0.10;0.10;;;7.30;99.90;;;;;;4972151;28;20046;-82
2022/10/07 05:00:40;;;;;;;0.10;0.10;;;7.30;99.90;;;;;;4977224;28;20057;-83
2022/10/07 05:03:09;;;;;;;0.10;0.10;;;7.30;99.90;;;;;;4954225;28;22197;-81
2022/10/07 05:05:39;;;;;;;0.10;0.10;;;7.50;99.90;;;;;;4982065;28;20140;-82
2022/10/07 05:08:07;;;;;;;0.10;0.10;;;7.10;99.90;;;;;;4993238;28;20495;-81
2022/10/07 05:10:36;;;;;;;0.10;0.10;;;7.10;99.90;;;;;;4981936;28;20134;-82
2022/10/07 05:13:03;;;;;;;0.10;0.10;;;7.10;99.90;;;;;;4976752;28;20376;-83
2022/10/07 05:15:30;;;;;;;0.10;0.10;;;7.10;99.90;;;;;;4983357;28;20490;-81
2022/10/07 05:17:57;;;;;;;0.10;0.10;;;6.90;99.90;;;;;;4990349;28;20495;-82
2022/10/07 05:20:26;;;;;;;0.10;0.10;;;6.90;99.90;;;;;;4979437;28;20050;-85
2022/10/07 05:22:53;;;;;;;0.10;0.10;;;6.90;99.90;;;;;;4973171;28;20096;-81
2022/10/07 05:25:20;;;;;;;0.10;0.10;;;6.90;99.90;;;;;;4991102;28;20046;-82
2022/10/07 05:27:52;;;;;;;0.10;0.10;;;6.80;99.90;;;;;;4974756;28;20084;-81
2022/10/07 05:30:20;;;;;;;0.10;0.10;;;6.80;99.90;;;;;;4974932;28;20049;-83
2022/10/07 05:32:47;;;;;;;0.10;0.10;;;6.80;99.90;;;;;;4986637;28;20612;-82
2022/10/07 05:35:14;;;;;;;0.10;0.10;;;;;;;;;;4975291;28;20125;-82
2022/10/07 05:37:42;;;;;;;0.03;0.03;;;6.90;99.90;;;;;;4974480;28;20452;-82
2022/10/07 05:40:16;;;;;;;0.10;0.10;;;7.00;99.90;;;;;;4972992;28;20054;-82
2022/10/07 05:42:43;;;;;;;0.10;0.10;;;7.00;99.90;;;;;;4971819;28;20039;-82
2022/10/07 05:45:10;;;;;;;0.10;0.10;;;;;;;;;;4978306;28;20117;-80
2022/10/07 05:47:37;;;;;;;0.10;0.10;;;8.30;99.90;;;;;;4993126;28;20050;-86
2022/10/07 05:50:06;;;;;;;0.00;0.00;;;8.10;99.90;;;;;;4993185;28;20495;-82
2022/10/07 05:52:34;;;;;;;0.10;0.10;;;6.80;99.90;;;;;;4982788;28;20122;-83
2022/10/07 05:55:03;;;;;;;0.10;0.10;;;6.90;99.90;;;;;;4971730;28;20125;-83
2022/10/07 05:57:30;;;;;;;0.10;0.10;;;6.90;99.90;;;;;;4990137;28;20132;-84
2022/10/07 05:59:57;;;;;;;0.10;0.10;;;6.90;99.90;;;;;;4991902;28;20038;-80
2022/10/07 06:02:24;;;;;;;0.10;0.10;;;8.70;99.90;;;;;;4974166;28;20073;-85
2022/10/07 06:04:52;;;;;;;0.10;0.10;;;7.00;99.90;;;;;;4975817;28;20438;-80
2022/10/07 06:07:19;;;;;;;0.10;0.10;;;7.00;99.90;;;;;;4971049;28;20062;-83
2022/10/07 06:15:21;;;;;;;0.10;0.10;;;7.20;99.90;;;;;;4991633;28;20054;-84
2022/10/07 06:17:48;;;;;;;0.03;0.03;;;7.40;99.90;;;;;;4985163;28;20121;-83
2022/10/07 06:20:16;;;;;;;0.10;0.10;;;7.40;99.90;;;;;;4984521;28;20042;-83
2022/10/07 06:22:43;;;;;;;0.10;0.10;;;7.50;99.90;;;;;;4975849;28;20483;-82
2022/10/07 06:25:09;;;;;;;0.10;0.10;;;7.50;99.90;;;;;;4973052;28;20051;-84
2022/10/07 06:27:38;;;;;;;0.00;0.00;;;8.40;99.90;;;;;;4973743;28;20503;-83
2022/10/07 06:30:06;;;;;;;0.08;0.08;;;7.70;99.90;;;;;;4974632;28;20052;-81
2022/10/07 06:32:33;;;;;;;0.10;0.10;;;;;;;;;;4990650;28;20100;-82
2022/10/07 06:35:00;;;;;;;0.10;0.10;;;7.90;99.90;;;;;;4971822;28;20060;-83
2022/10/07 06:37:29;;;;;;;0.10;0.10;;;8.00;99.90;;;;;;4985465;28;20613;-82
2022/10/07 06:39:56;;;;;;;0.10;0.10;;;8.10;99.90;;;;;;4984157;28;20121;-81
2022/10/07 06:42:25;;;;;;;0.10;0.10;;;8.10;99.90;;;;;;4975454;28;20046;-82
2022/10/07 06:44:54;;;;;;;0.10;0.10;;;8.20;99.90;;;;;;4991660;28;20050;-83
2022/10/07 06:47:20;;;;;;;0.10;0.10;;;8.20;99.90;;;;;;4994985;28;20536;-81
2022/10/07 06:49:47;;;;;;;0.10;0.10;;;8.30;99.90;;;;;;4980014;28;20085;-83
2022/10/07 06:52:14;;;;;;;0.10;0.10;;;8.40;99.90;;;;;;4970574;28;20077;-81
2022/10/07 06:54:41;;;;;;;0.10;0.10;;;8.40;99.90;;;;;;4994535;28;20042;-82
2022/10/07 06:57:08;;;;;;;0.10;0.10;;;8.50;99.90;;;;;;4995156;28;20405;-81
2022/10/07 06:59:56;;;;;;;0.00;0.00;;;8.60;99.90;;;;;;4999540;28;20113;-81
2022/10/07 07:02:24;;;;;;;0.10;0.10;;;8.60;99.90;;;;;;4977393;28;20050;-81
2022/10/07 07:04:53;;;;;;;0.03;0.03;;;8.70;99.90;;;;;;4976525;28;20100;-82
2022/10/07 07:07:23;;;;;;;0.10;0.10;;;8.80;99.90;;;;;;4990471;28;20046;-81
2022/10/07 07:09:50;;;;;;;0.10;0.10;;;8.80;99.90;;;;;;4978034;28;20058;-83
2022/10/07 07:12:17;;;;;;;0.10;0.10;;;9.00;99.90;;;;;;4983070;28;20056;-81
2022/10/07 07:14:44;;;;;;;0.10;0.10;;;9.10;99.90;;;;;;4976472;28;20133;-81
2022/10/07 07:17:13;;;;;;;0.10;0.10;;;9.70;99.90;;;;;;4994744;28;20046;-82
2022/10/07 07:19:39;;;;;;;0.10;0.10;;;9.20;99.90;;;;;;4980598;28;20112;-82
2022/10/07 07:22:07;;;;;;;0.10;0.10;;;9.20;99.90;;;;;;4993550;28;20046;-81
2022/10/07 07:24:34;;;;;;;0.10;0.10;;;9.30;99.90;;;;;;4990675;28;20054;-81
2022/10/07 07:27:01;;;;;;;0.10;0.10;;;9.30;99.90;;;;;;4992259;28;20075;-82
2022/10/07 07:29:28;;;;;;;0.10;0.10;;;;;;;;;;4997046;28;20507;-82
2022/10/07 07:31:57;;;;;;;0.10;0.10;;;;;;;;;;4977855;28;20426;-81
2022/10/07 07:34:25;;;;;;;0.10;0.10;;;9.40;99.90;;;;;;4983837;28;20034;-83
2022/10/07 07:36:52;;;;;;;0.10;0.10;;;9.60;99.90;;;;;;4980050;28;20038;-81
2022/10/07 07:39:19;;;;;;;0.10;0.10;;;9.60;99.90;;;;;;4982352;28;20129;-81
2022/10/07 07:41:46;;;;;;;0.10;0.10;;;9.60;99.90;;;;;;4991658;28;20085;-81
2022/10/07 07:44:16;;;;;;;0.10;0.10;;;9.70;99.90;;;;;;4979261;28;20044;-81
2022/10/07 07:46:47;;;;;;;0.10;0.10;;;9.70;99.90;;;;;;4992704;28;20046;-82
2022/10/07 07:49:14;;;;;;;0.10;0.10;;;9.70;99.90;;;;;;4972644;28;20133;-81
2022/10/07 07:51:43;;;;;;;0.10;0.10;;;9.80;99.90;;;;;;4978260;28;20115;-81
2022/10/07 07:54:10;;;;;;;0.08;0.08;;;9.80;99.90;;;;;;4972173;28;20478;-82
2022/10/07 07:56:37;;;;;;;0.10;0.10;;;10.00;99.90;;;;;;4975006;28;20069;-80
2022/10/07 07:59:05;;;;;;;0.10;0.10;;;10.00;99.90;;;;;;4982513;28;20046;-82
2022/10/07 08:01:34;;;;;;;0.10;0.10;;;10.10;99.90;;;;;;4991072;28;20492;-81
2022/10/07 08:04:01;;;;;;;0.00;0.00;;;10.20;99.90;;;;;;4977839;28;20058;-81
2022/10/07 08:06:30;;;;;;;0.00;0.00;;;10.20;99.90;;;;;;4977161;28;20077;-81
2022/10/07 08:08:58;;;;;;;0.10;0.10;;;10.30;99.90;;;;;;4977579;28;20081;-82
2022/10/07 08:11:26;;;;;;;0.10;0.10;;;10.30;99.90;;;;;;4976013;28;20058;-81
2022/10/07 08:13:54;;;;;;;0.08;0.08;;;10.40;99.90;;;;;;4968201;28;20133;-82
2022/10/07 08:16:23;;;;;;;0.10;0.10;;;10.50;99.90;;;;;;4993611;28;20112;-82
2022/10/07 08:18:51;;;;;;;0.08;0.08;;;10.60;99.90;;;;;;4977081;28;20056;-81
2022/10/07 08:21:20;;;;;;;0.00;0.00;;;11.00;99.90;;;;;;4978255;28;20046;-83
2022/10/07 08:23:51;;;;;;;0.10;0.10;;;10.70;99.90;;;;;;4972883;28;20047;-81
2022/10/07 08:26:19;;;;;;;0.00;0.00;;;10.80;99.90;;;;;;4971241;28;20054;-81
2022/10/07 08:28:47;;;;;;;0.00;0.00;;;10.90;99.90;;;;;;4973426;28;20133;-81
2022/10/07 08:31:17;;;;;;;0.00;0.00;;;10.90;99.90;;;;;;4971845;28;20053;-81
2022/10/07 08:33:46;;;;;;;0.10;0.10;;;11.00;99.90;;;;;;4969426;28;20047;-81
2022/10/07 08:36:15;;;;;;;0.10;0.10;;;11.00;99.90;;;;;;4987015;28;20152;-82
2022/10/07 08:38:42;;;;;;;0.00;0.00;;;11.10;99.90;;;;;;4976245;28;20060;-83
2022/10/07 08:41:23;;;;;;;0.00;0.00;;;11.20;99.90;;;;;;4974651;28;20046;-82
2022/10/07 08:43:50;;;;;;;0.00;0.00;;;11.30;99.90;;;;;;4973611;28;20030;-81
2022/10/07 08:46:20;;;;;;;0.00;0.00;;;11.30;99.90;;;;;;4994208;28;20046;-82
2022/10/07 08:48:51;;;;;;;0.00;0.00;;;11.40;99.90;;;;;;4975963;28;20042;-82
2022/10/07 08:51:23;;;;;;;0.05;0.05;;;11.50;99.90;;;;;;4989908;28;20549;-81
2022/10/07 08:53:55;;;;;;;0.00;0.00;;;13.00;99.90;;;;;;4965372;28;20145;-82
2022/10/07 08:56:24;;;;;;;0.00;0.00;;;11.60;99.90;;;;;;4989476;28;22071;-80
2022/10/07 08:59:01;;;;;;;0.00;0.00;;;12.10;99.90;;;;;;4988831;28;20039;-78
2022/10/07 09:01:37;;;;;;;0.00;0.00;;;11.70;99.90;;;;;;4953332;28;20082;-80
2022/10/07 09:04:16;;;;;;;0.00;0.00;;;11.80;99.90;;;;;;4971985;28;20038;-81
2022/10/07 09:06:51;;;;;;;0.00;0.00;;;11.90;99.90;;;;;;4983407;28;20048;-81
2022/10/07 09:09:22;;;;;;;0.00;0.00;;;12.00;99.90;;;;;;4971621;28;20082;-83
2022/10/07 09:11:53;;;;;;;0.00;0.00;;;12.10;99.90;;;;;;4985554;28;20050;-81
2022/10/07 09:14:26;;;;;;;0.00;0.00;;;12.10;99.90;;;;;;4987399;28;20045;-82
2022/10/07 09:16:59;;;;;;;0.00;0.00;;;12.20;99.90;;;;;;4987628;28;20097;-80
2022/10/07 09:19:30;;;;;;;0.00;0.00;;;12.20;99.90;;;;;;4983672;28;20077;-82
2022/10/07 09:22:04;;;;;;;0.00;0.00;;;12.30;99.90;;;;;;4988548;28;20440;-81
2022/10/07 09:24:33;;;;;;;0.05;0.05;;;12.40;99.90;;;;;;4990376;28;20478;-82
2022/10/07 09:27:11;;;;;;;0.00;0.00;;;12.50;99.90;;;;;;4983754;28;20052;-80
2022/10/07 09:29:38;;;;;;;0.00;0.00;;;;;;;;;;4990804;28;20495;-81
2022/10/07 09:32:05;;;;;;;0.00;0.00;;;;;;;;;;4988232;28;20129;-81
2022/10/07 09:34:32;;;;;;;0.00;0.00;;;12.70;99.90;;;;;;4986476;28;20125;-82
2022/10/07 09:37:18;;;;;;;0.00;0.00;;;12.80;99.90;;;;;;4989528;28;20050;-82
2022/10/07 09:39:47;;;;;;;0.00;0.00;;;12.80;99.90;;;;;;4986786;28;20050;-81
2022/10/07 09:42:30;;;;;;;0.00;0.00;;;12.90;99.90;;;;;;4992989;28;20121;-81
2022/10/07 09:45:00;;;;;;;0.00;0.00;;;14.40;99.90;;;;;;4995767;28;20506;-81
2022/10/07 09:47:31;;;;;;;0.00;0.00;;;13.00;99.90;;;;;;4990894;28;20034;-83
2022/10/07 09:50:00;;;;;;;0.00;0.00;;;13.10;99.90;;;;;;4989788;28;20476;-82
2022/10/07 09:52:29;;;;;;;0.10;0.10;;;13.20;99.90;;;;;;4970806;28;20080;-81
2022/10/07 09:55:16;;;;;;;0.00;0.00;;;13.20;99.90;;;;;;4973953;28;20410;-81
2022/10/07 09:57:58;;;;;;;0.00;0.00;;;13.70;99.90;;;;;;4989124;28;20077;-81
2022/10/07 10:00:26;;;;;;;0.00;0.00;;;13.40;99.90;;;;;;4989971;28;20053;-82
2022/10/07 10:02:57;;;;;;;0.00;0.00;;;13.50;99.90;;;;;;4979127;28;20104;-81
2022/10/07 10:05:33;;;;;;;0.00;0.00;;;13.60;99.90;;;;;;4978033;28;20179;-82
2022/10/07 10:08:02;;;;;;;;;;;13.60;99.90;;;;;;4987571;28;20050;-81
2022/10/07 10:10:31;;;;;;;0.00;0.00;;;13.60;99.90;;;;;;4991561;28;19945;-81
2022/10/07 10:13:01;;;;;;;0.00;0.00;;;13.70;99.90;;;;;;4990155;28;20550;-81
2022/10/07 10:15:39;;;;;;;0.00;0.00;;;13.70;99.90;;;;;;4983073;28;20049;-81
2022/10/07 10:18:39;;;;;;;0.00;0.00;;;13.80;99.90;;;;;;4991591;28;20044;-81
2022/10/07 10:21:18;;;;;;;0.00;0.00;;;13.90;99.90;;;;;;4915943;29;20091;-81
2022/10/07 10:23:47;;;;;;;0.00;0.00;;;13.90;99.90;;;;;;4896828;29;20052;-81
2022/10/07 10:26:28;;;;;;;0.00;0.00;;;13.90;99.90;;;;;;4954653;28;20313;-83
2022/10/07 10:29:12;;;;;;;0.00;0.00;;;14.00;99.90;;;;;;4987508;28;20045;-81
2022/10/07 10:31:53;;;;;;;0.00;0.00;;;14.10;99.90;;;;;;4992493;28;20093;-81
2022/10/07 10:34:31;;;;;;;0.00;0.00;;;14.20;99.90;;;;;;4993734;28;20061;-82
2022/10/07 10:37:02;;;;;;;0.00;0.00;;;14.30;99.90;;;;;;4979044;28;20054;-81
2022/10/07 10:39:43;;;;;;;0.00;0.00;;;14.40;99.90;;;;;;4977779;28;20117;-80
2022/10/07 10:42:18;;;;;;;0.00;0.00;;;14.50;99.90;;;;;;4966749;28;20041;-82
2022/10/07 10:45:06;;;;;;;0.00;0.00;;;14.50;99.90;;;;;;4987086;28;20046;-81
2022/10/07 10:47:46;;;;;;;0.00;0.00;;;14.60;99.90;;;;;;4994988;28;20096;-81
2022/10/07 10:50:23;;;;;;;0.00;0.00;;;14.60;99.90;;;;;;4989508;28;20570;-81
2022/10/07 10:53:00;;;;;;;0.00;0.00;;;16.60;99.90;;;;;;4991739;28;20076;-80
2022/10/07 10:56:01;;;;;;;0.00;0.00;;;14.80;99.90;;;;;;4996244;28;20047;-81
2022/10/07 10:58:41;;;;;;;0.00;0.00;;;14.90;99.90;;;;;;4987223;28;20061;-81
2022/10/07 11:01:15;;;;;;;;;;;15.00;99.90;;;;;;4992549;28;20039;-81
2022/10/07 11:04:03;;;;;;;0.00;0.00;;;15.80;99.90;;;;;;4990973;28;19926;-82
2022/10/07 11:06:34;;;;;;;0.00;0.00;;;15.20;99.90;;;;;;4991011;28;20050;-82
2022/10/07 11:09:03;;;;;;;0.00;0.00;;;15.20;99.90;;;;;;4987150;28;20042;-81
2022/10/07 11:11:31;;;;;;;0.00;0.00;;;15.20;99.90;;;;;;4977299;28;20046;-80
2022/10/07 11:14:00;;;;;;;0.00;0.00;;;15.30;99.90;;;;;;4994157;28;20039;-81
2022/10/07 11:16:35;;;;;;;0.00;0.00;;;15.20;99.90;;;;;;4979446;28;20050;-81
2022/10/07 11:19:08;;;;;;;0.00;0.00;;;15.30;99.90;;;;;;4970608;28;20047;-81
2022/10/07 11:21:39;;;;;;;0.00;0.00;;;15.50;99.90;;;;;;4991780;28;20078;-80
2022/10/07 11:24:14;;;;;;;0.00;0.00;;;17.40;99.90;;;;;;4993397;28;20494;-80
2022/10/07 11:26:46;;;;;;;0.00;0.00;;;15.50;99.90;;;;;;4977676;28;20053;-81
2022/10/07 11:29:24;;;;;;;0.00;0.00;;;15.60;99.90;;;;;;4979761;28;20046;-82
2022/10/07 11:32:01;;;;;;;0.00;0.00;;;15.60;99.90;;;;;;4973854;28;20038;-80
2022/10/07 11:34:40;;;;;;;0.00;0.00;;;16.70;99.90;;;;;;4979341;28;20026;-81
2022/10/07 11:37:14;;;;;;;0.00;0.00;;;15.90;99.90;;;;;;4992288;28;20052;-83
2022/10/07 11:39:41;;;;;;;0.00;0.00;;;17.00;99.90;;;;;;4996533;28;20053;-81
2022/10/07 11:42:14;;;;;;;0.00;0.00;;;15.90;99.90;;;;;;4995408;28;20417;-82
2022/10/07 11:44:51;;;;;;;0.00;0.00;;;16.00;99.90;;;;;;4984814;28;20066;-81
2022/10/07 11:47:23;;;;;;;0.00;0.00;;;16.10;99.90;;;;;;4985821;28;20054;-81
2022/10/07 11:49:59;;;;;;;0.00;0.00;;;16.10;99.90;;;;;;4977315;28;20053;-81
2022/10/07 11:52:28;;;;;;;0.00;0.00;;;16.20;99.90;;;;;;4996474;28;20046;-84
2022/10/07 11:55:01;;;;;;;0.00;0.00;;;16.20;99.90;;;;;;4978557;28;20054;-81
2022/10/07 11:57:32;;;;;;;0.00;0.00;;;16.20;99.90;;;;;;4973491;28;20046;-81
2022/10/07 12:00:04;;;;;;;0.00;0.00;;;16.20;99.90;;;;;;4973013;28;20042;-82
2022/10/07 12:02:43;;;;;;;0.00;0.00;;;16.20;99.90;;;;;;4987208;28;21100;-82
2022/10/07 12:05:29;;;;;;;;;;;16.10;99.90;;;;;;4971591;28;20115;-81
2022/10/07 12:07:59;;;;;;;0.00;0.00;;;16.30;99.90;;;;;;4991127;28;19945;-81
2022/10/07 12:10:30;;;;;;;0.00;0.00;;;16.40;99.90;;;;;;4991497;28;20554;-80
2022/10/07 12:13:00;;;;;;;0.00;0.00;;;16.50;99.90;;;;;;4971309;28;20078;-80
2022/10/07 12:15:38;;;;;;;0.00;0.00;;;16.50;99.90;;;;;;4994416;28;20046;-82
2022/10/07 12:18:28;;;;;;;0.00;0.00;;;16.50;99.90;;;;;;4994862;28;20034;-82
2022/10/07 12:21:04;;;;;;;0.00;0.00;;;16.50;99.90;;;;;;4979638;28;20089;-82
2022/10/07 12:24:04;;;;;;;0.00;0.00;;;16.50;99.90;;;;;;4981775;28;20046;-81
2022/10/07 12:26:49;;;;;;;0.00;0.00;;;16.60;99.90;;;;;;4974089;28;20109;-82
2022/10/07 12:29:34;;;;;;;0.00;0.00;;;16.60;99.90;;;;;;4995163;28;20053;-82
2022/10/07 12:32:01;;;;;;;0.00;0.00;;;16.60;99.60;;;;;;4973425;28;20045;-80
2022/10/07 12:34:38;;;;;;;0.00;0.00;;;16.50;99.90;;;;;;4991000;28;20046;-82
2022/10/07 12:37:43;;;;;;;0.00;0.00;;;16.50;99.70;;;;;;4983359;28;20042;-81
2022/10/07 12:40:16;;;;;;;0.00;0.00;;;16.50;99.70;;;;;;4990022;28;20116;-81
2022/10/07 12:42:51;;;;;;;0.00;0.00;;;16.50;99.90;;;;;;4974875;28;20045;-82
2022/10/07 12:45:20;;;;;;;0.00;0.00;;;16.40;99.90;;;;;;4989707;28;20045;-81
2022/10/07 12:47:53;;;;;;;0.00;0.00;;;16.50;99.90;;;;;;4976006;28;20120;-81
2022/10/07 12:50:24;;;;;;;0.00;0.00;;;17.20;99.90;;;;;;4980879;28;20050;-81
2022/10/07 12:52:54;;;;;;;0.00;0.00;;;16.40;99.50;;;;;;4974061;28;20040;-81
2022/10/07 12:55:27;;;;;;;0.00;0.00;;;16.40;99.90;;;;;;4975764;28;20042;-81
2022/10/07 12:59:46;;;;;;;0.00;0.00;;;16.50;99.90;;;;;;4982696;28;20046;-82
2022/10/07 13:01:13;;;;;;;0.00;0.00;;;17.00;99.90;;;;;;4991385;28;20075;-82
2022/10/07 13:03:58;;;;;;;0.00;0.00;;;16.50;99.90;;;;;;4991438;28;20050;-81
2022/10/07 13:07:12;;;;;;;0.00;0.00;;;16.50;99.90;;;;;;4976206;28;20050;-82
2022/10/07 13:10:02;;;;;;;0.00;0.00;;;16.60;99.90;;;;;;4986674;28;20054;-81
2022/10/07 13:12:38;;;;;;;0.00;0.00;;;16.60;99.90;;;;;;4977191;28;20069;-81
2022/10/07 13:15:25;;;;;;;0.00;0.00;;;17.00;99.90;;;;;;4975064;28;20117;-81
2022/10/07 13:17:58;;;;;;;0.05;0.05;;;16.60;99.50;;;;;;4972872;28;20072;-83
2022/10/07 13:23:05;;;;;;;0.00;0.00;;;16.70;99.60;;;;;;5051973;28;20032;-84
2022/10/07 13:25:32;;;;;;;0.00;0.00;;;16.70;99.70;;;;;;5044376;28;20068;-83
2022/10/07 13:27:59;;;;;;;0.00;0.00;;;16.70;99.90;;;;;;5041294;28;20112;-83